sensor_id;sensor_type;location;lat;lon;timestamp;P1;durP1;ratioP1;P2;durP2;ratioP2
10383;SDS011;5238;43.508;4.980;2023-11-21T00:00:06;2.97;;;2.20;;
10383;SDS011;5238;43.508;4.980;2023-11-21T00:02:37;6.32;;;2.75;;
10383;SDS011;5238;43.508;4.980;2023-11-21T00:05:07;5.60;;;2.90;;
10383;SDS011;5238;43.508;4.980;2023-11-21T00:07:35;3.33;;;2.30;;
10383;SDS011;5238;43.508;4.980;2023-11-21T00:10:02;5.25;;;2.60;;
10383;SDS011;5238;43.508;4.980;2023-11-21T00:12:30;3.05;;;2.03;;
10383;SDS011;5238;43.508;4.980;2023-11-21T00:14:58;4.45;;;2.08;;
10383;SDS011;5238;43.508;4.980;2023-11-21T00:17:26;5.18;;;1.95;;
10383;SDS011;5238;43.508;4.980;2023-11-21T00:19:53;4.00;;;1.75;;
10383;SDS011;5238;43.508;4.980;2023-11-21T00:22:21;6.55;;;1.80;;
10383;SDS011;5238;43.508;4.980;2023-11-21T00:24:48;3.50;;;1.60;;
10383;SDS011;5238;43.508;4.980;2023-11-21T00:27:15;4.63;;;2.03;;
10383;SDS011;5238;43.508;4.980;2023-11-21T00:29:41;3.90;;;1.90;;
10383;SDS011;5238;43.508;4.980;2023-11-21T00:32:08;4.38;;;1.52;;
10383;SDS011;5238;43.508;4.980;2023-11-21T00:34:35;3.28;;;1.40;;
10383;SDS011;5238;43.508;4.980;2023-11-21T00:37:02;2.05;;;1.60;;
10383;SDS011;5238;43.508;4.980;2023-11-21T00:39:31;2.83;;;1.85;;
10383;SDS011;5238;43.508;4.980;2023-11-21T00:41:58;4.40;;;1.70;;
10383;SDS011;5238;43.508;4.980;2023-11-21T00:44:25;3.53;;;1.30;;
10383;SDS011;5238;43.508;4.980;2023-11-21T00:46:51;3.67;;;1.73;;
10383;SDS011;5238;43.508;4.980;2023-11-21T00:49:19;4.57;;;1.88;;
10383;SDS011;5238;43.508;4.980;2023-11-21T00:51:46;2.90;;;1.67;;
10383;SDS011;5238;43.508;4.980;2023-11-21T00:54:13;5.53;;;1.77;;
10383;SDS011;5238;43.508;4.980;2023-11-21T00:56:43;3.08;;;1.30;;
10383;SDS011;5238;43.508;4.980;2023-11-21T00:59:12;4.28;;;1.70;;
10383;SDS011;5238;43.508;4.980;2023-11-21T01:01:39;3.67;;;1.60;;
10383;SDS011;5238;43.508;4.980;2023-11-21T01:04:06;3.38;;;1.40;;
10383;SDS011;5238;43.508;4.980;2023-11-21T01:06:33;2.83;;;1.60;;
10383;SDS011;5238;43.508;4.980;2023-11-21T01:09:00;4.03;;;1.73;;
10383;SDS011;5238;43.508;4.980;2023-11-21T01:11:29;2.90;;;1.77;;
10383;SDS011;5238;43.508;4.980;2023-11-21T01:13:57;4.47;;;1.60;;
10383;SDS011;5238;43.508;4.980;2023-11-21T01:16:25;4.45;;;1.58;;
10383;SDS011;5238;43.508;4.980;2023-11-21T01:18:52;4.40;;;1.70;;
10383;SDS011;5238;43.508;4.980;2023-11-21T01:21:19;5.43;;;2.65;;
10383;SDS011;5238;43.508;4.980;2023-11-21T01:23:48;3.65;;;1.30;;
10383;SDS011;5238;43.508;4.980;2023-11-21T01:26:15;4.15;;;1.50;;
10383;SDS011;5238;43.508;4.980;2023-11-21T01:28:42;4.72;;;1.80;;
10383;SDS011;5238;43.508;4.980;2023-11-21T01:31:10;3.95;;;1.75;;
10383;SDS011;5238;43.508;4.980;2023-11-21T01:33:38;4.68;;;1.73;;
10383;SDS011;5238;43.508;4.980;2023-11-21T01:36:05;4.22;;;1.60;;
10383;SDS011;5238;43.508;4.980;2023-11-21T01:38:32;4.00;;;1.70;;
10383;SDS011;5238;43.508;4.980;2023-11-21T01:40:59;5.43;;;1.67;;
10383;SDS011;5238;43.508;4.980;2023-11-21T01:43:26;2.78;;;1.50;;
10383;SDS011;5238;43.508;4.980;2023-11-21T01:45:55;3.47;;;1.50;;
10383;SDS011;5238;43.508;4.980;2023-11-21T01:48:24;3.38;;;1.73;;
10383;SDS011;5238;43.508;4.980;2023-11-21T01:50:52;3.20;;;1.50;;
10383;SDS011;5238;43.508;4.980;2023-11-21T01:53:19;2.03;;;1.42;;
10383;SDS011;5238;43.508;4.980;2023-11-21T01:55:46;2.97;;;1.70;;
10383;SDS011;5238;43.508;4.980;2023-11-21T01:58:14;3.17;;;0.98;;
10383;SDS011;5238;43.508;4.980;2023-11-21T02:00:42;2.75;;;1.10;;
10383;SDS011;5238;43.508;4.980;2023-11-21T02:03:09;2.83;;;1.27;;
10383;SDS011;5238;43.508;4.980;2023-11-21T02:05:38;1.58;;;1.10;;
10383;SDS011;5238;43.508;4.980;2023-11-21T02:08:05;3.35;;;1.10;;
10383;SDS011;5238;43.508;4.980;2023-11-21T02:10:34;1.75;;;0.88;;
10383;SDS011;5238;43.508;4.980;2023-11-21T02:13:02;3.67;;;1.10;;
10383;SDS011;5238;43.508;4.980;2023-11-21T02:15:29;3.47;;;1.23;;
10383;SDS011;5238;43.508;4.980;2023-11-21T02:17:56;3.22;;;1.10;;
10383;SDS011;5238;43.508;4.980;2023-11-21T02:20:24;3.10;;;1.30;;
10383;SDS011;5238;43.508;4.980;2023-11-21T02:22:53;2.63;;;1.20;;
10383;SDS011;5238;43.508;4.980;2023-11-21T02:25:23;2.38;;;1.10;;
10383;SDS011;5238;43.508;4.980;2023-11-21T02:27:50;3.05;;;1.20;;
10383;SDS011;5238;43.508;4.980;2023-11-21T02:30:17;1.38;;;1.00;;
10383;SDS011;5238;43.508;4.980;2023-11-21T02:32:44;2.03;;;0.88;;
10383;SDS011;5238;43.508;4.980;2023-11-21T02:35:11;2.45;;;1.17;;
10383;SDS011;5238;43.508;4.980;2023-11-21T02:37:38;2.28;;;1.00;;
10383;SDS011;5238;43.508;4.980;2023-11-21T02:40:08;3.33;;;1.40;;
10383;SDS011;5238;43.508;4.980;2023-11-21T02:42:37;1.42;;;1.05;;
10383;SDS011;5238;43.508;4.980;2023-11-21T02:45:06;3.55;;;1.20;;
10383;SDS011;5238;43.508;4.980;2023-11-21T02:47:33;5.60;;;0.98;;
10383;SDS011;5238;43.508;4.980;2023-11-21T02:50:00;3.95;;;1.23;;
10383;SDS011;5238;43.508;4.980;2023-11-21T02:52:28;2.33;;;1.00;;
10383;SDS011;5238;43.508;4.980;2023-11-21T02:54:58;2.28;;;0.90;;
10383;SDS011;5238;43.508;4.980;2023-11-21T02:57:26;3.40;;;1.42;;
10383;SDS011;5238;43.508;4.980;2023-11-21T02:59:53;2.88;;;1.20;;
10383;SDS011;5238;43.508;4.980;2023-11-21T03:02:20;2.50;;;0.90;;
10383;SDS011;5238;43.508;4.980;2023-11-21T03:04:48;3.15;;;1.15;;
10383;SDS011;5238;43.508;4.980;2023-11-21T03:07:15;2.45;;;1.05;;
10383;SDS011;5238;43.508;4.980;2023-11-21T03:09:42;2.47;;;0.90;;
10383;SDS011;5238;43.508;4.980;2023-11-21T03:12:09;4.22;;;1.10;;
10383;SDS011;5238;43.508;4.980;2023-11-21T03:14:38;2.95;;;1.00;;
10383;SDS011;5238;43.508;4.980;2023-11-21T03:17:05;2.58;;;1.10;;
10383;SDS011;5238;43.508;4.980;2023-11-21T03:19:32;1.67;;;1.00;;
10383;SDS011;5238;43.508;4.980;2023-11-21T03:21:59;4.18;;;1.55;;
10383;SDS011;5238;43.508;4.980;2023-11-21T03:24:26;3.67;;;1.10;;
10383;SDS011;5238;43.508;4.980;2023-11-21T03:26:53;2.50;;;1.35;;
10383;SDS011;5238;43.508;4.980;2023-11-21T03:29:20;1.65;;;1.00;;
10383;SDS011;5238;43.508;4.980;2023-11-21T03:31:48;3.13;;;0.93;;
10383;SDS011;5238;43.508;4.980;2023-11-21T03:34:19;2.83;;;1.20;;
10383;SDS011;5238;43.508;4.980;2023-11-21T03:36:49;3.67;;;1.20;;
10383;SDS011;5238;43.508;4.980;2023-11-21T03:39:16;5.35;;;1.17;;
10383;SDS011;5238;43.508;4.980;2023-11-21T03:41:43;6.22;;;1.10;;
10383;SDS011;5238;43.508;4.980;2023-11-21T03:44:10;4.22;;;1.30;;
10383;SDS011;5238;43.508;4.980;2023-11-21T03:46:37;5.68;;;1.02;;
10383;SDS011;5238;43.508;4.980;2023-11-21T03:49:05;4.05;;;1.27;;
10383;SDS011;5238;43.508;4.980;2023-11-21T03:51:32;2.95;;;1.30;;
10383;SDS011;5238;43.508;4.980;2023-11-21T03:54:00;3.67;;;1.20;;
10383;SDS011;5238;43.508;4.980;2023-11-21T03:56:27;1.05;;;0.90;;
10383;SDS011;5238;43.508;4.980;2023-11-21T03:58:55;4.03;;;1.00;;
10383;SDS011;5238;43.508;4.980;2023-11-21T04:01:22;3.22;;;1.23;;
10383;SDS011;5238;43.508;4.980;2023-11-21T04:03:50;2.78;;;1.08;;
10383;SDS011;5238;43.508;4.980;2023-11-21T04:06:18;4.20;;;1.55;;
10383;SDS011;5238;43.508;4.980;2023-11-21T04:08:45;4.22;;;1.30;;
10383;SDS011;5238;43.508;4.980;2023-11-21T04:11:12;1.90;;;1.23;;
10383;SDS011;5238;43.508;4.980;2023-11-21T04:13:40;2.38;;;1.20;;
10383;SDS011;5238;43.508;4.980;2023-11-21T04:16:08;1.80;;;1.13;;
10383;SDS011;5238;43.508;4.980;2023-11-21T04:18:36;3.90;;;1.10;;
10383;SDS011;5238;43.508;4.980;2023-11-21T04:21:03;3.30;;;1.20;;
10383;SDS011;5238;43.508;4.980;2023-11-21T04:23:32;2.22;;;1.10;;
10383;SDS011;5238;43.508;4.980;2023-11-21T04:26:00;2.72;;;0.90;;
10383;SDS011;5238;43.508;4.980;2023-11-21T04:28:28;2.67;;;0.95;;
10383;SDS011;5238;43.508;4.980;2023-11-21T04:30:55;1.90;;;0.95;;
10383;SDS011;5238;43.508;4.980;2023-11-21T04:33:22;2.40;;;1.15;;
10383;SDS011;5238;43.508;4.980;2023-11-21T04:35:50;2.38;;;1.00;;
10383;SDS011;5238;43.508;4.980;2023-11-21T04:38:17;2.67;;;0.93;;
10383;SDS011;5238;43.508;4.980;2023-11-21T04:40:46;3.13;;;0.90;;
10383;SDS011;5238;43.508;4.980;2023-11-21T04:43:13;1.98;;;1.10;;
10383;SDS011;5238;43.508;4.980;2023-11-21T04:45:40;2.58;;;1.20;;
10383;SDS011;5238;43.508;4.980;2023-11-21T04:48:07;5.72;;;1.15;;
10383;SDS011;5238;43.508;4.980;2023-11-21T04:50:35;3.30;;;1.20;;
10383;SDS011;5238;43.508;4.980;2023-11-21T04:53:02;3.03;;;1.20;;
10383;SDS011;5238;43.508;4.980;2023-11-21T04:55:30;3.08;;;1.25;;
10383;SDS011;5238;43.508;4.980;2023-11-21T04:57:58;1.85;;;1.00;;
10383;SDS011;5238;43.508;4.980;2023-11-21T05:00:25;3.42;;;1.33;;
10383;SDS011;5238;43.508;4.980;2023-11-21T05:02:52;3.00;;;0.90;;
10383;SDS011;5238;43.508;4.980;2023-11-21T05:05:19;2.33;;;1.30;;
10383;SDS011;5238;43.508;4.980;2023-11-21T05:07:46;3.50;;;1.48;;
10383;SDS011;5238;43.508;4.980;2023-11-21T05:10:14;6.97;;;1.33;;
10383;SDS011;5238;43.508;4.980;2023-11-21T05:12:41;1.92;;;1.25;;
10383;SDS011;5238;43.508;4.980;2023-11-21T05:15:12;2.88;;;1.30;;
10383;SDS011;5238;43.508;4.980;2023-11-21T05:17:40;2.15;;;1.20;;
10383;SDS011;5238;43.508;4.980;2023-11-21T05:20:08;2.58;;;1.27;;
10383;SDS011;5238;43.508;4.980;2023-11-21T05:22:36;2.45;;;1.02;;
10383;SDS011;5238;43.508;4.980;2023-11-21T05:25:04;2.45;;;1.00;;
10383;SDS011;5238;43.508;4.980;2023-11-21T05:27:32;4.53;;;1.50;;
10383;SDS011;5238;43.508;4.980;2023-11-21T05:30:01;1.50;;;0.80;;
10383;SDS011;5238;43.508;4.980;2023-11-21T05:32:31;1.20;;;1.10;;
10383;SDS011;5238;43.508;4.980;2023-11-21T05:34:59;2.80;;;1.35;;
10383;SDS011;5238;43.508;4.980;2023-11-21T05:37:26;2.05;;;1.00;;
10383;SDS011;5238;43.508;4.980;2023-11-21T05:39:53;3.47;;;1.23;;
10383;SDS011;5238;43.508;4.980;2023-11-21T05:42:21;1.88;;;0.95;;
10383;SDS011;5238;43.508;4.980;2023-11-21T05:44:48;5.10;;;1.38;;
10383;SDS011;5238;43.508;4.980;2023-11-21T05:47:15;1.65;;;1.10;;
10383;SDS011;5238;43.508;4.980;2023-11-21T05:49:44;5.38;;;1.10;;
10383;SDS011;5238;43.508;4.980;2023-11-21T05:52:15;3.63;;;1.15;;
10383;SDS011;5238;43.508;4.980;2023-11-21T05:54:42;2.60;;;1.13;;
10383;SDS011;5238;43.508;4.980;2023-11-21T05:57:09;3.92;;;1.27;;
10383;SDS011;5238;43.508;4.980;2023-11-21T05:59:36;1.75;;;1.00;;
10383;SDS011;5238;43.508;4.980;2023-11-21T06:02:03;2.20;;;1.60;;
10383;SDS011;5238;43.508;4.980;2023-11-21T06:04:31;2.67;;;0.93;;
10383;SDS011;5238;43.508;4.980;2023-11-21T06:06:59;1.08;;;0.98;;
10383;SDS011;5238;43.508;4.980;2023-11-21T06:09:26;3.90;;;1.23;;
10383;SDS011;5238;43.508;4.980;2023-11-21T06:11:53;4.38;;;1.20;;
10383;SDS011;5238;43.508;4.980;2023-11-21T06:14:20;3.50;;;1.13;;
10383;SDS011;5238;43.508;4.980;2023-11-21T06:16:47;1.90;;;1.50;;
10383;SDS011;5238;43.508;4.980;2023-11-21T06:19:16;3.50;;;1.48;;
10383;SDS011;5238;43.508;4.980;2023-11-21T06:21:45;1.83;;;1.00;;
10383;SDS011;5238;43.508;4.980;2023-11-21T06:24:13;2.75;;;1.33;;
10383;SDS011;5238;43.508;4.980;2023-11-21T06:26:41;2.60;;;1.30;;
10383;SDS011;5238;43.508;4.980;2023-11-21T06:29:09;2.58;;;1.30;;
10383;SDS011;5238;43.508;4.980;2023-11-21T06:31:36;2.22;;;0.93;;
10383;SDS011;5238;43.508;4.980;2023-11-21T06:34:03;5.68;;;1.25;;
10383;SDS011;5238;43.508;4.980;2023-11-21T06:36:30;2.78;;;1.13;;
10383;SDS011;5238;43.508;4.980;2023-11-21T06:38:57;2.03;;;1.00;;
10383;SDS011;5238;43.508;4.980;2023-11-21T06:41:25;1.95;;;1.25;;
10383;SDS011;5238;43.508;4.980;2023-11-21T06:43:52;2.28;;;1.20;;
10383;SDS011;5238;43.508;4.980;2023-11-21T06:46:19;3.22;;;1.35;;
10383;SDS011;5238;43.508;4.980;2023-11-21T06:48:46;2.47;;;1.00;;
10383;SDS011;5238;43.508;4.980;2023-11-21T06:51:14;2.40;;;1.20;;
10383;SDS011;5238;43.508;4.980;2023-11-21T06:53:41;1.65;;;1.10;;
10383;SDS011;5238;43.508;4.980;2023-11-21T06:56:15;2.15;;;1.33;;
10383;SDS011;5238;43.508;4.980;2023-11-21T06:58:44;2.70;;;1.42;;
10383;SDS011;5238;43.508;4.980;2023-11-21T07:01:12;3.67;;;1.33;;
10383;SDS011;5238;43.508;4.980;2023-11-21T07:03:40;3.22;;;1.23;;
10383;SDS011;5238;43.508;4.980;2023-11-21T07:06:07;1.13;;;1.02;;
10383;SDS011;5238;43.508;4.980;2023-11-21T07:08:35;2.92;;;1.30;;
10383;SDS011;5238;43.508;4.980;2023-11-21T07:11:02;3.60;;;1.40;;
10383;SDS011;5238;43.508;4.980;2023-11-21T07:13:29;2.53;;;1.65;;
10383;SDS011;5238;43.508;4.980;2023-11-21T07:15:57;2.78;;;1.60;;
10383;SDS011;5238;43.508;4.980;2023-11-21T07:18:25;2.30;;;1.30;;
10383;SDS011;5238;43.508;4.980;2023-11-21T07:20:52;2.60;;;1.17;;
10383;SDS011;5238;43.508;4.980;2023-11-21T07:23:19;2.97;;;1.38;;
10383;SDS011;5238;43.508;4.980;2023-11-21T07:25:47;2.45;;;1.27;;
10383;SDS011;5238;43.508;4.980;2023-11-21T07:28:14;2.58;;;1.27;;
10383;SDS011;5238;43.508;4.980;2023-11-21T07:30:41;4.63;;;1.83;;
10383;SDS011;5238;43.508;4.980;2023-11-21T07:33:10;4.78;;;1.45;;
10383;SDS011;5238;43.508;4.980;2023-11-21T07:35:37;2.60;;;1.20;;
10383;SDS011;5238;43.508;4.980;2023-11-21T07:38:04;4.70;;;1.85;;
10383;SDS011;5238;43.508;4.980;2023-11-21T07:40:31;4.65;;;1.55;;
10383;SDS011;5238;43.508;4.980;2023-11-21T07:42:58;5.90;;;1.80;;
10383;SDS011;5238;43.508;4.980;2023-11-21T07:45:25;5.07;;;1.80;;
10383;SDS011;5238;43.508;4.980;2023-11-21T07:47:53;3.65;;;1.73;;
10383;SDS011;5238;43.508;4.980;2023-11-21T07:50:22;5.78;;;1.45;;
10383;SDS011;5238;43.508;4.980;2023-11-21T07:52:49;3.67;;;1.92;;
10383;SDS011;5238;43.508;4.980;2023-11-21T07:55:16;3.63;;;1.60;;
10383;SDS011;5238;43.508;4.980;2023-11-21T07:57:43;6.90;;;1.60;;
10383;SDS011;5238;43.508;4.980;2023-11-21T08:00:10;6.47;;;1.52;;
10383;SDS011;5238;43.508;4.980;2023-11-21T08:02:40;3.22;;;1.50;;
10383;SDS011;5238;43.508;4.980;2023-11-21T08:05:08;4.10;;;1.80;;
10383;SDS011;5238;43.508;4.980;2023-11-21T08:07:37;4.60;;;2.15;;
10383;SDS011;5238;43.508;4.980;2023-11-21T08:10:05;3.67;;;1.40;;
10383;SDS011;5238;43.508;4.980;2023-11-21T08:12:35;3.83;;;1.60;;
10383;SDS011;5238;43.508;4.980;2023-11-21T08:15:02;3.42;;;1.58;;
10383;SDS011;5238;43.508;4.980;2023-11-21T08:17:30;3.40;;;1.63;;
10383;SDS011;5238;43.508;4.980;2023-11-21T08:19:58;3.33;;;1.75;;
10383;SDS011;5238;43.508;4.980;2023-11-21T08:22:24;2.30;;;1.60;;
10383;SDS011;5238;43.508;4.980;2023-11-21T08:24:53;2.40;;;1.38;;
10383;SDS011;5238;43.508;4.980;2023-11-21T08:27:21;3.70;;;1.50;;
10383;SDS011;5238;43.508;4.980;2023-11-21T08:29:48;4.50;;;1.58;;
10383;SDS011;5238;43.508;4.980;2023-11-21T08:32:15;3.33;;;1.60;;
10383;SDS011;5238;43.508;4.980;2023-11-21T08:34:42;3.67;;;1.45;;
10383;SDS011;5238;43.508;4.980;2023-11-21T08:37:10;3.65;;;1.52;;
10383;SDS011;5238;43.508;4.980;2023-11-21T08:39:37;3.38;;;1.45;;
10383;SDS011;5238;43.508;4.980;2023-11-21T08:42:07;3.10;;;1.20;;
10383;SDS011;5238;43.508;4.980;2023-11-21T08:44:34;3.78;;;1.25;;
10383;SDS011;5238;43.508;4.980;2023-11-21T08:47:01;2.55;;;1.48;;
10383;SDS011;5238;43.508;4.980;2023-11-21T08:49:30;3.80;;;1.27;;
10383;SDS011;5238;43.508;4.980;2023-11-21T08:51:57;2.78;;;1.42;;
10383;SDS011;5238;43.508;4.980;2023-11-21T08:54:24;2.85;;;1.50;;
10383;SDS011;5238;43.508;4.980;2023-11-21T08:56:52;3.00;;;1.38;;
10383;SDS011;5238;43.508;4.980;2023-11-21T08:59:21;2.30;;;1.63;;
10383;SDS011;5238;43.508;4.980;2023-11-21T09:01:49;2.28;;;1.42;;
10383;SDS011;5238;43.508;4.980;2023-11-21T09:04:16;2.25;;;1.40;;
10383;SDS011;5238;43.508;4.980;2023-11-21T09:06:43;5.65;;;1.15;;
10383;SDS011;5238;43.508;4.980;2023-11-21T09:09:10;3.28;;;1.42;;
10383;SDS011;5238;43.508;4.980;2023-11-21T09:11:37;2.30;;;1.30;;
10383;SDS011;5238;43.508;4.980;2023-11-21T09:14:04;5.95;;;1.48;;
10383;SDS011;5238;43.508;4.980;2023-11-21T09:16:32;2.28;;;1.08;;
10383;SDS011;5238;43.508;4.980;2023-11-21T09:19:00;4.93;;;1.25;;
10383;SDS011;5238;43.508;4.980;2023-11-21T09:21:30;4.10;;;1.10;;
10383;SDS011;5238;43.508;4.980;2023-11-21T09:23:58;1.42;;;1.00;;
10383;SDS011;5238;43.508;4.980;2023-11-21T09:26:24;1.23;;;1.00;;
10383;SDS011;5238;43.508;4.980;2023-11-21T09:28:51;2.25;;;1.10;;
10383;SDS011;5238;43.508;4.980;2023-11-21T09:31:19;2.80;;;1.30;;
10383;SDS011;5238;43.508;4.980;2023-11-21T09:33:49;2.45;;;1.00;;
10383;SDS011;5238;43.508;4.980;2023-11-21T09:36:16;2.65;;;1.02;;
10383;SDS011;5238;43.508;4.980;2023-11-21T09:38:43;1.70;;;1.10;;
10383;SDS011;5238;43.508;4.980;2023-11-21T09:41:11;1.75;;;1.27;;
10383;SDS011;5238;43.508;4.980;2023-11-21T09:43:46;3.03;;;1.17;;
10383;SDS011;5238;43.508;4.980;2023-11-21T09:46:14;2.70;;;1.17;;
10383;SDS011;5238;43.508;4.980;2023-11-21T09:48:46;3.28;;;1.30;;
10383;SDS011;5238;43.508;4.980;2023-11-21T09:51:18;5.85;;;1.25;;
10383;SDS011;5238;43.508;4.980;2023-11-21T09:53:48;1.90;;;1.02;;
10383;SDS011;5238;43.508;4.980;2023-11-21T09:56:18;4.60;;;1.10;;
10383;SDS011;5238;43.508;4.980;2023-11-21T09:58:50;3.42;;;1.30;;
10383;SDS011;5238;43.508;4.980;2023-11-21T10:01:18;2.17;;;1.08;;
10383;SDS011;5238;43.508;4.980;2023-11-21T10:03:47;3.40;;;1.00;;
10383;SDS011;5238;43.508;4.980;2023-11-21T10:06:15;2.65;;;1.20;;
10383;SDS011;5238;43.508;4.980;2023-11-21T10:08:44;2.60;;;0.98;;
10383;SDS011;5238;43.508;4.980;2023-11-21T10:11:12;1.75;;;1.23;;
10383;SDS011;5238;43.508;4.980;2023-11-21T10:13:43;4.35;;;1.40;;
10383;SDS011;5238;43.508;4.980;2023-11-21T10:16:13;3.17;;;1.13;;
10383;SDS011;5238;43.508;4.980;2023-11-21T10:18:42;2.70;;;1.95;;
10383;SDS011;5238;43.508;4.980;2023-11-21T10:21:11;3.33;;;1.30;;
10383;SDS011;5238;43.508;4.980;2023-11-21T10:23:40;3.45;;;1.30;;
10383;SDS011;5238;43.508;4.980;2023-11-21T10:26:08;1.48;;;1.00;;
10383;SDS011;5238;43.508;4.980;2023-11-21T10:28:41;1.38;;;0.80;;
10383;SDS011;5238;43.508;4.980;2023-11-21T10:31:20;2.60;;;1.00;;
10383;SDS011;5238;43.508;4.980;2023-11-21T10:33:49;5.40;;;1.05;;
10383;SDS011;5238;43.508;4.980;2023-11-21T10:36:24;3.45;;;1.08;;
10383;SDS011;5238;43.508;4.980;2023-11-21T10:38:53;4.47;;;1.23;;
10383;SDS011;5238;43.508;4.980;2023-11-21T10:41:22;2.33;;;1.33;;
10383;SDS011;5238;43.508;4.980;2023-11-21T10:43:52;1.38;;;0.90;;
10383;SDS011;5238;43.508;4.980;2023-11-21T10:46:21;1.00;;;0.80;;
10383;SDS011;5238;43.508;4.980;2023-11-21T10:48:52;1.23;;;0.98;;
10383;SDS011;5238;43.508;4.980;2023-11-21T10:51:21;2.60;;;1.25;;
10383;SDS011;5238;43.508;4.980;2023-11-21T10:53:49;1.70;;;0.90;;
10383;SDS011;5238;43.508;4.980;2023-11-21T10:56:19;4.38;;;1.10;;
10383;SDS011;5238;43.508;4.980;2023-11-21T10:58:49;5.28;;;1.20;;
10383;SDS011;5238;43.508;4.980;2023-11-21T11:01:17;7.70;;;1.30;;
10383;SDS011;5238;43.508;4.980;2023-11-21T11:03:46;7.93;;;1.42;;
10383;SDS011;5238;43.508;4.980;2023-11-21T11:06:13;1.45;;;0.90;;
10383;SDS011;5238;43.508;4.980;2023-11-21T11:08:41;2.58;;;1.45;;
10383;SDS011;5238;43.508;4.980;2023-11-21T11:11:09;2.58;;;1.10;;
10383;SDS011;5238;43.508;4.980;2023-11-21T11:13:39;1.75;;;1.10;;
10383;SDS011;5238;43.508;4.980;2023-11-21T11:16:11;2.88;;;1.00;;
10383;SDS011;5238;43.508;4.980;2023-11-21T11:18:42;1.42;;;1.02;;
10383;SDS011;5238;43.508;4.980;2023-11-21T11:21:14;1.13;;;1.00;;
10383;SDS011;5238;43.508;4.980;2023-11-21T11:23:58;1.38;;;1.02;;
10383;SDS011;5238;43.508;4.980;2023-11-21T11:26:41;2.28;;;1.25;;
10383;SDS011;5238;43.508;4.980;2023-11-21T11:29:18;2.50;;;1.20;;
10383;SDS011;5238;43.508;4.980;2023-11-21T11:32:00;1.60;;;1.08;;
10383;SDS011;5238;43.508;4.980;2023-11-21T11:34:36;3.42;;;1.02;;
10383;SDS011;5238;43.508;4.980;2023-11-21T11:37:08;2.78;;;1.10;;
10383;SDS011;5238;43.508;4.980;2023-11-21T11:39:36;1.20;;;1.10;;
10383;SDS011;5238;43.508;4.980;2023-11-21T11:42:06;2.15;;;1.10;;
10383;SDS011;5238;43.508;4.980;2023-11-21T11:44:47;1.30;;;1.20;;
10383;SDS011;5238;43.508;4.980;2023-11-21T11:47:19;2.60;;;1.08;;
10383;SDS011;5238;43.508;4.980;2023-11-21T11:49:59;1.65;;;1.25;;
10383;SDS011;5238;43.508;4.980;2023-11-21T11:52:32;2.63;;;0.90;;
10383;SDS011;5238;43.508;4.980;2023-11-21T11:55:01;2.03;;;1.02;;
10383;SDS011;5238;43.508;4.980;2023-11-21T11:57:30;1.88;;;1.00;;
10383;SDS011;5238;43.508;4.980;2023-11-21T12:00:08;1.00;;;0.90;;
10383;SDS011;5238;43.508;4.980;2023-11-21T12:02:42;1.10;;;1.00;;
10383;SDS011;5238;43.508;4.980;2023-11-21T12:05:12;0.98;;;0.60;;
10383;SDS011;5238;43.508;4.980;2023-11-21T12:07:44;3.58;;;1.27;;
10383;SDS011;5238;43.508;4.980;2023-11-21T12:10:13;1.35;;;0.80;;
10383;SDS011;5238;43.508;4.980;2023-11-21T12:12:43;2.70;;;0.90;;
10383;SDS011;5238;43.508;4.980;2023-11-21T12:15:15;1.83;;;0.98;;
10383;SDS011;5238;43.508;4.980;2023-11-21T12:17:43;3.63;;;1.00;;
10383;SDS011;5238;43.508;4.980;2023-11-21T12:20:10;1.65;;;1.00;;
10383;SDS011;5238;43.508;4.980;2023-11-21T12:22:43;0.90;;;0.90;;
10383;SDS011;5238;43.508;4.980;2023-11-21T12:25:13;1.15;;;0.80;;
10383;SDS011;5238;43.508;4.980;2023-11-21T12:27:42;1.35;;;0.90;;
10383;SDS011;5238;43.508;4.980;2023-11-21T12:30:11;1.25;;;0.90;;
10383;SDS011;5238;43.508;4.980;2023-11-21T12:32:42;2.97;;;0.90;;
10383;SDS011;5238;43.508;4.980;2023-11-21T12:35:11;0.88;;;0.70;;
10383;SDS011;5238;43.508;4.980;2023-11-21T12:37:39;2.33;;;1.20;;
10383;SDS011;5238;43.508;4.980;2023-11-21T12:40:08;3.50;;;1.02;;
10383;SDS011;5238;43.508;4.980;2023-11-21T12:42:37;2.78;;;0.90;;
10383;SDS011;5238;43.508;4.980;2023-11-21T12:45:08;0.90;;;0.90;;
10383;SDS011;5238;43.508;4.980;2023-11-21T12:47:42;1.27;;;0.80;;
10383;SDS011;5238;43.508;4.980;2023-11-21T12:50:10;1.45;;;1.00;;
10383;SDS011;5238;43.508;4.980;2023-11-21T12:52:40;1.08;;;0.85;;
10383;SDS011;5238;43.508;4.980;2023-11-21T12:55:13;3.50;;;0.82;;
10383;SDS011;5238;43.508;4.980;2023-11-21T12:57:42;0.93;;;0.82;;
10383;SDS011;5238;43.508;4.980;2023-11-21T13:00:10;1.15;;;1.05;;
10383;SDS011;5238;43.508;4.980;2023-11-21T13:02:52;0.73;;;0.73;;
10383;SDS011;5238;43.508;4.980;2023-11-21T13:05:25;3.90;;;0.73;;
10383;SDS011;5238;43.508;4.980;2023-11-21T13:07:53;3.80;;;1.00;;
10383;SDS011;5238;43.508;4.980;2023-11-21T13:10:23;2.10;;;0.82;;
10383;SDS011;5238;43.508;4.980;2023-11-21T13:12:54;3.17;;;1.00;;
10383;SDS011;5238;43.508;4.980;2023-11-21T13:15:23;0.88;;;0.82;;
10383;SDS011;5238;43.508;4.980;2023-11-21T13:17:51;1.50;;;1.02;;
10383;SDS011;5238;43.508;4.980;2023-11-21T13:20:21;1.25;;;0.80;;
10383;SDS011;5238;43.508;4.980;2023-11-21T13:22:50;1.70;;;0.90;;
10383;SDS011;5238;43.508;4.980;2023-11-21T13:25:19;1.25;;;0.70;;
10383;SDS011;5238;43.508;4.980;2023-11-21T13:27:47;1.80;;;1.00;;
10383;SDS011;5238;43.508;4.980;2023-11-21T13:30:15;0.70;;;0.70;;
10383;SDS011;5238;43.508;4.980;2023-11-21T13:32:44;0.70;;;0.70;;
10383;SDS011;5238;43.508;4.980;2023-11-21T13:35:13;2.35;;;1.20;;
10383;SDS011;5238;43.508;4.980;2023-11-21T13:37:48;3.05;;;1.00;;
10383;SDS011;5238;43.508;4.980;2023-11-21T13:40:20;0.98;;;0.82;;
10383;SDS011;5238;43.508;4.980;2023-11-21T13:42:51;2.45;;;1.00;;
10383;SDS011;5238;43.508;4.980;2023-11-21T13:45:20;2.05;;;1.00;;
10383;SDS011;5238;43.508;4.980;2023-11-21T13:47:48;3.63;;;1.30;;
10383;SDS011;5238;43.508;4.980;2023-11-21T13:50:19;0.80;;;0.80;;
10383;SDS011;5238;43.508;4.980;2023-11-21T13:52:54;1.10;;;1.00;;
10383;SDS011;5238;43.508;4.980;2023-11-21T13:55:21;1.45;;;0.90;;
10383;SDS011;5238;43.508;4.980;2023-11-21T13:57:50;2.25;;;1.00;;
10383;SDS011;5238;43.508;4.980;2023-11-21T14:00:18;1.38;;;0.80;;
10383;SDS011;5238;43.508;4.980;2023-11-21T14:03:02;0.70;;;0.70;;
10383;SDS011;5238;43.508;4.980;2023-11-21T14:05:35;1.50;;;0.80;;
10383;SDS011;5238;43.508;4.980;2023-11-21T14:08:02;3.13;;;0.90;;
10383;SDS011;5238;43.508;4.980;2023-11-21T14:10:30;9.32;;;1.35;;
10383;SDS011;5238;43.508;4.980;2023-11-21T14:13:05;6.85;;;1.40;;
10383;SDS011;5238;43.508;4.980;2023-11-21T14:15:32;2.03;;;1.35;;
10383;SDS011;5238;43.508;4.980;2023-11-21T14:18:03;4.57;;;1.02;;
10383;SDS011;5238;43.508;4.980;2023-11-21T14:20:34;2.45;;;1.10;;
10383;SDS011;5238;43.508;4.980;2023-11-21T14:23:02;1.33;;;1.10;;
10383;SDS011;5238;43.508;4.980;2023-11-21T14:25:29;3.60;;;1.40;;
10383;SDS011;5238;43.508;4.980;2023-11-21T14:27:57;1.20;;;0.98;;
10383;SDS011;5238;43.508;4.980;2023-11-21T14:30:24;2.58;;;0.90;;
10383;SDS011;5238;43.508;4.980;2023-11-21T14:32:52;0.77;;;0.77;;
10383;SDS011;5238;43.508;4.980;2023-11-21T14:35:19;2.38;;;0.70;;
10383;SDS011;5238;43.508;4.980;2023-11-21T14:37:47;9.38;;;1.17;;
10383;SDS011;5238;43.508;4.980;2023-11-21T14:40:14;8.45;;;1.17;;
10383;SDS011;5238;43.508;4.980;2023-11-21T14:42:46;7.18;;;0.90;;
10383;SDS011;5238;43.508;4.980;2023-11-21T14:45:13;3.83;;;1.00;;
10383;SDS011;5238;43.508;4.980;2023-11-21T14:47:45;2.78;;;0.95;;
10383;SDS011;5238;43.508;4.980;2023-11-21T14:50:18;7.10;;;0.93;;
10383;SDS011;5238;43.508;4.980;2023-11-21T14:53:00;1.45;;;0.95;;
10383;SDS011;5238;43.508;4.980;2023-11-21T14:55:31;4.85;;;0.90;;
10383;SDS011;5238;43.508;4.980;2023-11-21T14:58:04;5.35;;;1.27;;
10383;SDS011;5238;43.508;4.980;2023-11-21T15:00:35;2.80;;;0.95;;
10383;SDS011;5238;43.508;4.980;2023-11-21T15:03:10;1.27;;;0.80;;
10383;SDS011;5238;43.508;4.980;2023-11-21T15:05:49;1.88;;;0.90;;
10383;SDS011;5238;43.508;4.980;2023-11-21T15:08:17;3.88;;;1.15;;